createdAt,value
2022-11-20T00:00:12.557Z,97892.56
2022-11-20T00:03:01.984Z,97879.59
2022-11-20T00:05:49.918Z,97873.53
2022-11-20T00:08:38.228Z,97863.91
2022-11-20T00:11:28.611Z,97873.75
2022-11-20T00:14:16.578Z,97873.00
2022-11-20T00:17:04.671Z,97872.06
2022-11-20T00:19:53.879Z,97862.47
2022-11-20T00:22:41.802Z,97852.50
2022-11-20T00:25:29.834Z,97854.91
2022-11-20T00:28:17.712Z,97861.72
2022-11-20T00:31:07.246Z,97862.97
2022-11-20T00:33:55.320Z,97877.75
2022-11-20T00:36:44.688Z,97861.09
2022-11-20T00:39:32.603Z,97860.88
2022-11-20T00:42:20.427Z,97863.25
2022-11-20T00:45:09.334Z,97876.50
2022-11-20T00:47:57.185Z,97884.25
2022-11-20T00:50:45.173Z,97878.59
2022-11-20T00:53:34.582Z,97873.75
2022-11-20T00:56:23.061Z,97876.03
2022-11-20T00:59:11.860Z,97881.06
2022-11-20T01:01:59.875Z,97871.44
2022-11-20T01:04:47.619Z,97876.56
2022-11-20T01:07:35.285Z,97868.72
2022-11-20T01:10:24.707Z,97873.88
2022-11-20T01:13:30.408Z,97884.00
2022-11-20T01:16:20.349Z,97877.53
2022-11-20T01:19:09.887Z,97873.94
2022-11-20T01:21:57.974Z,97871.44
2022-11-20T01:24:45.821Z,97875.72
2022-11-20T01:27:35.298Z,97883.91
2022-11-20T01:30:23.191Z,97875.13
2022-11-20T01:33:11.095Z,97874.91
2022-11-20T01:36:07.322Z,97878.97
2022-11-20T01:39:27.983Z,97883.41
2022-11-20T01:42:33.220Z,97870.00
2022-11-20T01:45:58.161Z,97873.94
2022-11-20T01:48:52.723Z,97872.72
2022-11-20T01:51:44.166Z,97867.28
2022-11-20T01:54:38.119Z,97871.75
2022-11-20T01:57:28.909Z,97869.66
2022-11-20T02:00:19.190Z,97868.72
2022-11-20T02:03:11.967Z,97864.13
2022-11-20T02:06:09.035Z,97862.19
2022-11-20T02:08:57.130Z,97866.63
2022-11-20T02:11:45.410Z,97863.06
2022-11-20T02:14:32.597Z,97867.13
2022-11-20T02:17:20.657Z,97869.50
2022-11-20T02:20:11.388Z,97880.94
2022-11-20T02:23:05.392Z,97871.19
2022-11-20T02:25:56.561Z,97865.94
2022-11-20T02:28:44.720Z,97861.56
2022-11-20T02:31:42.318Z,97860.59
2022-11-20T02:34:30.845Z,97857.16
2022-11-20T02:37:20.315Z,97849.41
2022-11-20T02:40:09.844Z,97856.22
2022-11-20T02:42:59.913Z,97862.41
2022-11-20T02:45:47.758Z,97860.72
2022-11-20T02:48:35.741Z,97861.66
2022-11-20T02:51:24.261Z,97872.03
2022-11-20T02:54:12.094Z,97860.50
2022-11-20T02:57:00.023Z,97850.88
2022-11-20T02:59:49.826Z,97853.59
2022-11-20T03:02:37.864Z,97850.00
2022-11-20T03:05:26.205Z,97856.09
2022-11-20T03:08:13.857Z,97847.28
2022-11-20T03:11:07.217Z,97849.78
2022-11-20T03:13:55.277Z,97844.56
2022-11-20T03:16:47.039Z,97842.06
2022-11-20T03:19:35.233Z,97841.25
2022-11-20T03:22:23.358Z,97838.63
2022-11-20T03:25:11.571Z,97830.53
2022-11-20T03:27:59.163Z,97831.59
2022-11-20T03:30:47.119Z,97830.78
2022-11-20T03:33:36.509Z,97829.81
2022-11-20T03:36:24.980Z,97829.06
2022-11-20T03:39:12.985Z,97831.69
2022-11-20T03:42:01.086Z,97832.44
2022-11-20T03:44:49.113Z,97839.53
2022-11-20T03:47:37.388Z,97827.63
2022-11-20T03:50:26.548Z,97830.69
2022-11-20T03:53:14.464Z,97824.75
2022-11-20T03:56:02.392Z,97827.00
2022-11-20T03:58:50.338Z,97823.47
2022-11-20T04:01:39.298Z,97817.38
2022-11-20T04:04:27.360Z,97815.50
2022-11-20T04:07:16.763Z,97815.94
2022-11-20T04:10:04.851Z,97819.16
2022-11-20T04:12:52.747Z,97812.38
2022-11-20T04:15:40.305Z,97814.16
2022-11-20T04:18:28.194Z,97813.22
2022-11-20T04:21:16.315Z,97814.03
2022-11-20T04:24:06.269Z,97815.72
2022-11-20T04:26:54.113Z,97815.59
2022-11-20T04:29:43.634Z,97815.50
2022-11-20T04:32:31.525Z,97810.25
2022-11-20T04:35:19.470Z,97816.31
2022-11-20T04:38:07.695Z,97815.50
2022-11-20T04:41:00.450Z,97807.53
2022-11-20T04:43:50.464Z,97809.31
2022-11-20T04:46:40.777Z,97810.25
2022-11-20T04:49:28.521Z,97808.34
2022-11-20T04:52:16.824Z,97813.59
2022-11-20T04:55:05.385Z,97812.16
2022-11-20T04:57:54.488Z,97805.13
2022-11-20T05:00:42.520Z,97810.25
2022-11-20T05:03:30.425Z,97805.94
2022-11-20T05:06:20.758Z,97804.84
2022-11-20T05:09:08.723Z,97808.97
2022-11-20T05:11:56.791Z,97809.69
2022-11-20T05:14:46.075Z,97807.78
2022-11-20T05:17:34.005Z,97798.78
2022-11-20T05:20:22.557Z,97803.81
2022-11-20T05:23:10.465Z,97801.91
2022-11-20T05:25:59.756Z,97794.78
2022-11-20T05:28:49.197Z,97802.53
2022-11-20T05:31:38.266Z,97794.56
2022-11-20T05:34:25.922Z,97795.00
2022-11-20T05:37:13.946Z,97789.13
2022-11-20T05:40:02.104Z,97779.50
2022-11-20T05:42:50.043Z,97775.50
2022-11-20T05:45:39.069Z,97786.94
2022-11-20T05:48:28.544Z,97780.13
2022-11-20T05:51:19.386Z,97784.09
2022-11-20T05:54:07.290Z,97780.28
2022-11-20T05:56:55.397Z,97779.44
2022-11-20T05:59:43.564Z,97779.56
2022-11-20T06:02:31.425Z,97782.28
2022-11-20T06:05:22.147Z,97780.28
2022-11-20T06:08:09.998Z,97771.69
2022-11-20T06:10:58.037Z,97773.09
2022-11-20T06:13:46.679Z,97785.59
2022-11-20T06:16:34.576Z,97785.13
2022-11-20T06:19:22.627Z,97783.25
2022-11-20T06:22:11.781Z,97785.63
2022-11-20T06:24:59.504Z,97784.69
2022-11-20T06:27:47.652Z,97784.09
2022-11-20T06:30:35.893Z,97785.75
2022-11-20T06:33:23.705Z,97791.72
2022-11-20T06:36:12.965Z,97787.41
2022-11-20T06:39:10.396Z,97795.25
2022-11-20T06:41:59.261Z,97789.13
2022-11-20T06:44:47.309Z,97789.25
2022-11-20T06:47:35.095Z,97791.66
2022-11-20T06:50:23.118Z,97787.84
2022-11-20T06:53:10.861Z,97791.94
2022-11-20T06:56:00.600Z,97790.75
2022-11-20T06:58:48.636Z,97796.00
2022-11-20T07:01:36.982Z,97785.53
2022-11-20T07:04:25.005Z,97790.53
2022-11-20T07:07:12.924Z,97797.44
2022-11-20T07:10:01.078Z,97800.16
2022-11-20T07:12:54.082Z,97810.63
2022-11-20T07:15:41.752Z,97809.81
2022-11-20T07:18:29.702Z,97811.59
2022-11-20T07:21:17.618Z,97810.53
2022-11-20T07:24:05.380Z,97808.53
2022-11-20T07:26:53.125Z,97812.09
2022-11-20T07:29:42.612Z,97809.38
2022-11-20T07:32:30.170Z,97801.00
2022-11-20T07:35:18.222Z,97806.25
2022-11-20T07:38:05.900Z,97813.16
2022-11-20T07:40:57.492Z,97811.25
2022-11-20T07:43:45.288Z,97812.00
2022-11-20T07:46:34.723Z,97809.13
2022-11-20T07:49:22.780Z,97816.06
2022-11-20T07:52:11.018Z,97818.44
2022-11-20T07:54:59.047Z,97815.63
2022-11-20T07:57:46.841Z,97811.19
2022-11-20T08:00:34.895Z,97807.53
2022-11-20T08:03:25.859Z,97815.38
2022-11-20T08:06:14.007Z,97811.06
2022-11-20T08:09:02.249Z,97812.25
2022-11-20T08:12:07.583Z,97815.00
2022-11-20T08:14:56.357Z,97813.09
2022-11-20T08:17:56.770Z,97808.47
2022-11-20T08:20:53.588Z,97818.81
2022-11-20T08:23:41.243Z,97811.81
2022-11-20T08:26:29.451Z,97815.16
2022-11-20T08:29:17.139Z,97811.59
2022-11-20T08:32:05.333Z,97812.66
2022-11-20T08:34:53.455Z,97810.38
2022-11-20T08:37:43.357Z,97804.06
2022-11-20T08:40:31.370Z,97804.41
2022-11-20T08:43:19.118Z,97803.66
2022-11-20T08:46:07.233Z,97808.47
2022-11-20T08:48:55.493Z,97805.63
2022-11-20T08:51:44.090Z,97801.69
2022-11-20T08:54:33.293Z,97806.81
2022-11-20T08:57:21.309Z,97805.91
2022-11-20T09:00:12.512Z,97812.81
2022-11-20T09:03:01.859Z,97809.22
2022-11-20T09:05:50.036Z,97809.00
2022-11-20T09:08:38.481Z,97807.84
2022-11-20T09:11:27.882Z,97804.16
2022-11-20T09:14:15.563Z,97810.25
2022-11-20T09:17:03.602Z,97792.84
2022-11-20T09:19:51.597Z,97803.94
2022-11-20T09:22:42.729Z,97797.63
2022-11-20T09:25:30.539Z,97800.00
2022-11-20T09:28:20.492Z,97789.41
2022-11-20T09:31:08.938Z,97799.78
2022-11-20T09:33:57.025Z,97793.59
2022-11-20T09:36:44.570Z,97787.53
2022-11-20T09:39:32.437Z,97787.41
2022-11-20T09:42:31.996Z,97799.44
2022-11-20T09:45:26.751Z,97812.78
2022-11-20T09:48:39.004Z,97806.44
2022-11-20T09:51:38.135Z,97794.31
2022-11-20T09:54:31.720Z,97805.03
2022-11-20T09:57:23.929Z,97810.28
2022-11-20T10:00:16.482Z,97814.47
2022-11-20T10:03:15.224Z,97809.00
2022-11-20T10:06:05.111Z,97804.56
2022-11-20T10:09:01.792Z,97803.53
2022-11-20T10:11:59.990Z,97792.22
2022-11-20T10:15:18.347Z,97795.56
2022-11-20T10:18:23.576Z,97794.59
2022-11-20T10:21:18.466Z,97784.00
2022-11-20T10:24:25.707Z,97778.75
2022-11-20T10:27:42.408Z,97783.88
2022-11-20T10:30:31.609Z,97775.16
2022-11-20T10:33:24.721Z,97776.03
2022-11-20T10:36:21.366Z,97775.06
2022-11-20T10:39:17.835Z,97775.78
2022-11-20T10:42:10.897Z,97775.78
2022-11-20T10:45:12.127Z,97766.97
2022-11-20T10:48:12.823Z,97766.97
2022-11-20T10:51:20.325Z,97755.50
2022-11-20T10:54:19.374Z,97757.44
2022-11-20T10:57:19.934Z,97761.00
2022-11-20T11:00:11.765Z,97766.97
2022-11-20T11:03:03.329Z,97789.47
2022-11-20T11:05:56.093Z,97805.34
2022-11-20T11:08:46.290Z,97808.44
2022-11-20T11:11:35.759Z,97806.78
2022-11-20T11:14:25.550Z,97792.97
2022-11-20T11:17:24.477Z,97797.25
2022-11-20T11:20:21.940Z,97775.56
2022-11-20T11:23:35.407Z,97774.63
2022-11-20T11:26:26.775Z,97769.97
2022-11-20T11:29:21.182Z,97774.97
2022-11-20T11:32:10.996Z,97764.25
2022-11-20T11:35:03.412Z,97766.97
2022-11-20T11:37:52.464Z,97766.50
2022-11-20T11:40:42.015Z,97761.72
2022-11-20T11:43:52.064Z,97757.06
2022-11-20T11:46:41.424Z,97763.13
2022-11-20T11:49:29.092Z,97759.66
2022-11-20T11:52:20.661Z,97753.56
2022-11-20T11:55:13.254Z,97749.34
2022-11-20T11:58:19.019Z,97743.69
2022-11-20T12:01:21.138Z,97743.66
2022-11-20T12:04:19.093Z,97743.59
2022-11-20T12:07:44.220Z,97737.34
2022-11-20T12:10:32.071Z,97744.97
2022-11-20T12:13:43.002Z,97738.50
2022-11-20T12:16:36.216Z,97745.16
2022-11-20T12:19:24.575Z,97744.09
2022-11-20T12:22:28.770Z,97743.50
2022-11-20T12:25:20.693Z,97737.97
2022-11-20T12:28:41.323Z,97740.59
2022-11-20T12:32:26.650Z,97737.97
2022-11-20T12:35:30.103Z,97736.56
2022-11-20T12:38:49.426Z,97739.31
2022-11-20T12:42:25.329Z,97741.97
2022-11-20T12:46:07.694Z,97733.94
2022-11-20T12:53:46.046Z,97728.94
2022-11-20T12:56:51.208Z,97727.16
2022-11-20T13:00:14.843Z,97730.59
2022-11-20T13:03:36.322Z,97731.31
2022-11-20T13:06:27.968Z,97719.97
2022-11-20T13:09:18.753Z,97726.06
2022-11-20T13:12:13.295Z,97724.38
2022-11-20T13:15:12.916Z,97720.22
2022-11-20T13:18:02.391Z,97714.03
2022-11-20T13:20:50.660Z,97716.66
2022-11-20T13:23:40.080Z,97717.72
2022-11-20T13:26:29.503Z,97717.97
2022-11-20T13:29:21.013Z,97715.47
2022-11-20T13:32:16.561Z,97707.72
2022-11-20T13:35:06.635Z,97717.53
2022-11-20T13:38:03.669Z,97723.72
2022-11-20T13:40:58.551Z,97724.81
2022-11-20T13:43:49.251Z,97729.53
2022-11-20T13:46:42.111Z,97734.06
2022-11-20T13:49:34.630Z,97734.44
2022-11-20T13:52:40.808Z,97735.53
2022-11-20T13:55:38.550Z,97728.84
2022-11-20T13:58:38.178Z,97729.81
2022-11-20T14:01:29.061Z,97723.84
2022-11-20T14:04:22.842Z,97725.78
2022-11-20T14:07:15.004Z,97727.81
2022-11-20T14:10:03.556Z,97726.25
2022-11-20T14:12:51.970Z,97726.25
2022-11-20T14:15:44.831Z,97720.88
2022-11-20T14:18:33.302Z,97710.38
2022-11-20T14:21:26.579Z,97714.91
2022-11-20T14:24:15.975Z,97727.34
2022-11-20T14:27:04.061Z,97724.59
2022-11-20T14:29:53.241Z,97725.78
2022-11-20T14:32:43.284Z,97729.38
2022-11-20T14:35:33.111Z,97720.78
2022-11-20T14:38:26.109Z,97728.66
2022-11-20T14:41:21.191Z,97728.66
2022-11-20T14:44:11.520Z,97723.41
2022-11-20T14:47:00.555Z,97722.59
2022-11-20T14:49:51.113Z,97720.09
2022-11-20T14:52:38.959Z,97730.84
2022-11-20T14:55:32.787Z,97720.34
2022-11-20T14:58:25.587Z,97717.00
2022-11-20T15:01:16.158Z,97713.69
2022-11-20T15:04:08.534Z,97718.94
2022-11-20T15:06:59.790Z,97710.34
2022-11-20T15:09:47.545Z,97713.09
2022-11-20T15:12:37.969Z,97708.81
2022-11-20T15:15:32.224Z,97715.00
2022-11-20T15:18:23.566Z,97721.09
2022-11-20T15:21:14.495Z,97721.34
2022-11-20T15:24:03.490Z,97718.97
2022-11-20T15:26:51.668Z,97716.44
2022-11-20T15:29:39.931Z,97714.91
2022-11-20T15:32:33.757Z,97708.00
2022-11-20T15:35:24.751Z,97708.00
2022-11-20T15:38:12.864Z,97714.06
2022-11-20T15:41:02.574Z,97707.28
2022-11-20T15:43:50.902Z,97703.81
2022-11-20T15:46:42.466Z,97712.78
2022-11-20T15:49:30.501Z,97703.38
2022-11-20T15:52:18.930Z,97701.00
2022-11-20T15:55:10.128Z,97700.16
2022-11-20T15:57:59.579Z,97694.06
2022-11-20T16:00:47.954Z,97694.91
2022-11-20T16:03:35.770Z,97693.25
2022-11-20T16:06:23.823Z,97696.13
2022-11-20T16:09:11.924Z,97696.34
2022-11-20T16:12:00.303Z,97685.88
2022-11-20T16:15:12.292Z,97678.97
2022-11-20T16:18:01.332Z,97689.44
2022-11-20T16:20:52.272Z,97685.63
2022-11-20T16:23:40.038Z,97672.97
2022-11-20T16:26:28.131Z,97672.16
2022-11-20T16:29:16.569Z,97671.31
2022-11-20T16:32:05.903Z,97680.38
2022-11-20T16:34:53.760Z,97678.44
2022-11-20T16:37:42.820Z,97685.63
2022-11-20T16:40:30.611Z,97678.22
2022-11-20T16:43:18.531Z,97686.09
2022-11-20T16:46:07.414Z,97678.22
2022-11-20T16:48:58.515Z,97676.69
2022-11-20T16:51:46.123Z,97677.50
2022-11-20T16:54:34.268Z,97673.72
2022-11-20T16:57:22.476Z,97667.50
2022-11-20T17:00:11.891Z,97663.22
2022-11-20T17:02:59.617Z,97668.72
2022-11-20T17:05:48.985Z,97660.84
2022-11-20T17:08:37.401Z,97658.34
2022-11-20T17:11:25.341Z,97657.84
2022-11-20T17:14:13.606Z,97651.66
2022-11-20T17:17:01.621Z,97647.25
2022-11-20T17:19:49.543Z,97640.91
2022-11-20T17:22:39.007Z,97645.34
2022-11-20T17:25:26.934Z,97637.00
2022-11-20T17:28:15.176Z,97641.78
2022-11-20T17:31:03.303Z,97636.78
2022-11-20T17:33:51.497Z,97638.94
2022-11-20T17:36:44.800Z,97632.97
2022-11-20T17:39:34.995Z,97631.44
2022-11-20T17:42:29.787Z,97631.56
2022-11-20T17:45:17.698Z,97627.28
2022-11-20T17:48:06.321Z,97623.94
2022-11-20T17:50:54.332Z,97626.56
2022-11-20T17:53:43.618Z,97621.31
2022-11-20T17:56:51.889Z,97620.50
2022-11-20T17:59:40.281Z,97615.50
2022-11-20T18:02:28.046Z,97613.81
2022-11-20T18:05:16.622Z,97614.66
2022-11-20T18:08:04.606Z,97599.75
2022-11-20T18:10:52.724Z,97598.91
2022-11-20T18:14:00.279Z,97596.41
2022-11-20T18:16:50.010Z,97592.13
2022-11-20T18:19:48.018Z,97593.91
2022-11-20T18:22:48.099Z,97589.63
2022-11-20T18:25:36.247Z,97589.50
2022-11-20T18:28:24.693Z,97580.94
2022-11-20T18:31:15.010Z,97574.84
2022-11-20T18:34:03.195Z,97574.72
2022-11-20T18:36:51.015Z,97572.94
2022-11-20T18:39:39.298Z,97572.44
2022-11-20T18:42:44.723Z,97576.28
2022-11-20T18:45:32.458Z,97570.91
2022-11-20T18:48:21.846Z,97557.94
2022-11-20T18:51:11.895Z,97561.13
2022-11-20T18:54:00.428Z,97550.75
2022-11-20T18:56:48.473Z,97541.47
2022-11-20T18:59:36.519Z,97540.97
2022-11-20T19:02:25.005Z,97524.03
2022-11-20T19:05:15.641Z,97524.75
2022-11-20T19:08:03.290Z,97522.44
2022-11-20T19:10:51.614Z,97528.31
2022-11-20T19:13:40.574Z,97523.34
2022-11-20T19:16:28.735Z,97517.13
2022-11-20T19:19:17.069Z,97521.41
2022-11-20T19:22:06.781Z,97511.16
2022-11-20T19:24:54.715Z,97516.66
2022-11-20T19:27:42.641Z,97514.88
2022-11-20T19:30:30.663Z,97511.41
2022-11-20T19:33:18.529Z,97511.41
2022-11-20T19:36:15.203Z,97503.78
2022-11-20T19:39:06.649Z,97512.00
2022-11-20T19:41:54.610Z,97507.00
2022-11-20T19:44:42.395Z,97500.94
2022-11-20T19:48:00.568Z,97502.88
2022-11-20T19:50:38.045Z,97501.91
2022-11-20T19:53:26.282Z,97502.63
2022-11-20T19:56:15.888Z,97504.72
2022-11-20T19:59:04.484Z,97495.03
2022-11-20T20:01:53.174Z,97485.34
2022-11-20T20:04:41.372Z,97493.22
2022-11-20T20:07:29.540Z,97490.47
2022-11-20T20:10:20.241Z,97491.72
2022-11-20T20:13:09.868Z,97500.31
2022-11-20T20:15:57.843Z,97502.06
2022-11-20T20:18:46.894Z,97489.19
2022-11-20T20:21:36.344Z,97484.13
2022-11-20T20:24:24.616Z,97479.47
2022-11-20T20:27:12.445Z,97480.19
2022-11-20T20:30:01.987Z,97480.47
2022-11-20T20:32:55.858Z,97484.91
2022-11-20T20:35:45.481Z,97484.47
2022-11-20T20:38:33.801Z,97483.09
2022-11-20T20:41:23.580Z,97480.03
2022-11-20T20:44:29.008Z,97480.09
2022-11-20T20:47:18.484Z,97480.53
2022-11-20T20:50:08.735Z,97473.75
2022-11-20T20:52:56.935Z,97477.81
2022-11-20T20:55:54.049Z,97481.16
2022-11-20T20:58:43.035Z,97479.66
2022-11-20T21:01:31.061Z,97469.63
2022-11-20T21:04:20.707Z,97474.50
2022-11-20T21:07:08.933Z,97468.41
2022-11-20T21:09:56.787Z,97463.59
2022-11-20T21:12:44.416Z,97454.63
2022-11-20T21:15:32.506Z,97448.00
2022-11-20T21:18:23.233Z,97443.84
2022-11-20T21:21:32.581Z,97430.63
2022-11-20T21:24:20.971Z,97434.97
2022-11-20T21:27:09.152Z,97435.28
2022-11-20T21:29:57.907Z,97421.44
2022-11-20T21:32:45.832Z,97421.03
2022-11-20T21:35:35.868Z,97418.03
2022-11-20T21:38:25.116Z,97415.53
2022-11-20T21:41:14.591Z,97406.13
2022-11-20T21:47:13.514Z,97392.16
2022-11-20T21:50:01.655Z,97387.44
2022-11-20T21:52:49.737Z,97385.25
2022-11-20T21:55:39.249Z,97384.00
2022-11-20T21:58:28.212Z,97377.78
2022-11-20T22:01:18.760Z,97380.56
2022-11-20T22:04:08.137Z,97372.50
2022-11-20T22:06:56.012Z,97373.34
2022-11-20T22:09:44.197Z,97366.44
2022-11-20T22:12:33.838Z,97372.53
2022-11-20T22:15:45.852Z,97364.22
2022-11-20T22:18:28.674Z,97372.53
2022-11-20T22:21:17.897Z,97372.78
2022-11-20T22:24:05.831Z,97365.06
2022-11-20T22:26:53.856Z,97369.91
2022-11-20T22:29:43.494Z,97372.22
2022-11-20T22:32:31.614Z,97366.97
2022-11-20T22:35:19.666Z,97362.03
2022-11-20T22:38:07.712Z,97365.47
2022-11-20T22:40:55.812Z,97370.44
2022-11-20T22:43:45.314Z,97368.22
2022-11-20T22:46:36.215Z,97358.81
2022-11-20T22:49:24.170Z,97365.75
2022-11-20T22:52:12.031Z,97359.22
2022-11-20T22:55:05.358Z,97358.41
2022-11-20T22:57:55.065Z,97353.31
2022-11-20T23:00:46.654Z,97349.69
2022-11-20T23:03:36.189Z,97348.88
2022-11-20T23:06:25.334Z,97358.97
2022-11-20T23:09:13.756Z,97351.78
2022-11-20T23:12:01.509Z,97352.91
2022-11-20T23:14:49.471Z,97352.63
2022-11-20T23:17:37.788Z,97360.63
2022-11-20T23:20:27.395Z,97355.94
2022-11-20T23:23:15.085Z,97354.97
2022-11-20T23:26:04.090Z,97357.59
2022-11-20T23:28:53.662Z,97352.75
2022-11-20T23:31:41.744Z,97349.56
2022-11-20T23:34:29.865Z,97348.75
2022-11-20T23:37:18.924Z,97354.97
2022-11-20T23:40:08.054Z,97346.53
2022-11-20T23:43:13.351Z,97348.47
2022-11-20T23:46:02.918Z,97339.47
2022-11-20T23:48:51.087Z,97330.50
2022-11-20T23:51:39.051Z,97323.03
2022-11-20T23:54:28.555Z,97316.78
2022-11-20T23:57:16.933Z,97325.22
